Time;durP1;ratioP1;P1;durP2;ratioP2;P2;SDS_P1;SDS_P2;PMS_P1;PMS_P2;Temp;Humidity;BMP_temperature;BMP_pressure;BME280_temperature;BME280_humidity;BME280_pressure;Samples;Min_cycle;Max_cycle;Signal;HPM_P1;HPM_P2
2022/01/22 00:01:35;;;;;;;14.10;8.27;;;6.90;77.60;;;;;;4995198;28;20571;-87
2022/01/22 00:04:01;;;;;;;10.30;7.67;;;6.90;77.50;;;;;;4996330;28;20202;-86
2022/01/22 00:06:26;;;;;;;10.53;6.77;;;6.80;77.50;;;;;;4995513;28;20230;-87
2022/01/22 00:08:52;;;;;;;18.83;9.57;;;6.80;77.60;;;;;;4995105;28;20183;-87
2022/01/22 00:11:18;;;;;;;14.50;8.00;;;6.80;77.60;;;;;;4997996;28;20657;-87
2022/01/22 00:16:28;;;;;;;17.00;9.75;;;7.00;77.60;;;;;;5009800;28;20186;-86
2022/01/22 00:18:53;;;;;;;11.30;8.77;;;6.90;77.50;;;;;;5015358;28;20214;-87
2022/01/22 00:21:19;;;;;;;15.20;9.10;;;6.70;77.50;;;;;;5013389;28;20181;-87
2022/01/22 00:23:54;;;;;;;14.53;8.60;;;6.70;77.70;;;;;;4994080;28;20282;-87
2022/01/22 00:26:20;;;;;;;18.65;7.68;;;6.90;77.70;;;;;;4996429;28;20188;-87
2022/01/22 00:28:46;;;;;;;16.75;8.18;;;6.80;77.50;;;;;;4995904;28;20206;-87
2022/01/22 00:31:12;;;;;;;14.10;8.80;;;6.90;77.60;;;;;;4998154;28;20171;-87
2022/01/22 00:33:37;;;;;;;18.00;8.70;;;6.80;77.60;;;;;;4999391;28;20198;-87
2022/01/22 00:36:03;;;;;;;12.50;8.40;;;6.90;77.60;;;;;;5000270;28;20853;-87
2022/01/22 00:38:29;;;;;;;19.43;9.33;;;6.80;77.50;;;;;;4996973;28;20679;-86
2022/01/22 00:40:55;;;;;;;12.87;8.60;;;6.90;77.60;;;;;;5002436;28;20462;-85
2022/01/22 00:43:21;;;;;;;12.93;8.23;;;6.90;77.60;;;;;;5018021;28;20258;-85
2022/01/22 00:45:47;;;;;;;18.73;8.50;;;6.90;77.50;;;;;;4999766;28;20426;-85
2022/01/22 00:48:12;;;;;;;14.67;7.60;;;6.90;77.50;;;;;;5000279;28;20185;-85
2022/01/22 00:50:39;;;;;;;25.80;9.30;;;6.80;77.40;;;;;;5017956;28;20416;-85
2022/01/22 00:53:04;;;;;;;13.77;7.65;;;6.80;77.50;;;;;;4999452;28;20869;-86
2022/01/22 00:55:30;;;;;;;15.13;8.87;;;6.80;77.50;;;;;;4996756;28;20231;-85
2022/01/22 00:57:56;;;;;;;11.80;7.53;;;6.80;77.40;;;;;;4997234;28;20183;-85
2022/01/22 01:00:21;;;;;;;15.80;9.10;;;6.90;77.50;;;;;;5002060;28;20217;-86
2022/01/22 01:02:54;;;;;;;13.97;8.47;;;7.00;77.30;;;;;;5001822;28;20425;-85
2022/01/22 01:05:21;;;;;;;17.55;8.57;;;6.90;77.10;;;;;;4995014;28;20442;-86
2022/01/22 01:07:47;;;;;;;18.80;8.10;;;6.90;77.20;;;;;;4995747;28;20251;-86
2022/01/22 01:10:16;;;;;;;15.60;8.27;;;6.80;77.20;;;;;;4999494;28;20194;-86
2022/01/22 01:12:42;;;;;;;13.05;8.82;;;6.80;77.50;;;;;;5017961;28;20187;-86
2022/01/22 01:34:23;;;;;;;16.55;9.18;;;6.80;77.60;;;;;;5010011;28;20276;-86
2022/01/22 01:36:49;;;;;;;15.20;10.40;;;6.90;77.70;;;;;;4995621;28;20206;-86
2022/01/22 01:39:22;;;;;;;23.50;9.32;;;6.80;77.70;;;;;;4997659;28;20198;-86
2022/01/22 01:42:00;;;;;;;22.08;11.13;;;7.00;78.00;;;;;;4993215;28;20175;-87
2022/01/22 01:44:26;;;;;;;16.60;10.38;;;7.00;77.90;;;;;;4992769;28;20205;-87
2022/01/22 01:46:59;;;;;;;15.30;10.13;;;7.00;77.90;;;;;;4995779;28;20265;-87
2022/01/22 01:49:26;;;;;;;19.92;11.05;;;7.00;77.90;;;;;;4996845;28;20422;-87
2022/01/22 01:51:54;;;;;;;23.48;10.63;;;6.90;77.90;;;;;;5002565;28;20241;-87
2022/01/22 01:54:46;;;;;;;27.02;10.73;;;6.80;78.00;;;;;;5000984;28;20253;-87
2022/01/22 01:59:59;;;;;;;18.70;10.70;;;6.90;78.40;;;;;;4994400;28;20202;-86
2022/01/22 02:02:27;;;;;;;15.60;11.52;;;7.00;78.30;;;;;;4992629;28;20175;-87
2022/01/22 02:04:53;;;;;;;19.88;11.82;;;6.90;78.40;;;;;;4992364;28;20199;-88
2022/01/22 02:07:19;;;;;;;19.60;11.97;;;6.90;78.40;;;;;;4995720;28;20666;-89
2022/01/22 02:09:44;;;;;;;17.70;12.20;;;7.00;78.50;;;;;;5004547;28;20473;-88
2022/01/22 02:12:23;;;;;;;18.47;11.67;;;7.00;78.40;;;;;;4992227;28;20325;-87
2022/01/22 02:25:46;;;;;;;22.42;10.90;;;7.10;78.10;;;;;;5012466;28;20575;-88
2022/01/22 02:28:13;;;;;;;23.57;11.20;;;7.10;78.10;;;;;;4995455;28;20202;-89
2022/01/22 02:30:43;;;;;;;22.63;12.45;;;7.10;78.10;;;;;;4996411;28;20456;-89
2022/01/22 02:36:05;;;;;;;19.52;12.20;;;7.20;78.10;;;;;;5015327;28;20168;-88
2022/01/22 02:38:48;;;;;;;22.48;12.27;;;7.20;78.00;;;;;;5000344;28;20171;-88
2022/01/22 02:41:18;;;;;;;22.83;12.57;;;7.20;78.00;;;;;;5011042;28;20182;-88
2022/01/22 02:43:46;;;;;;;27.00;13.50;;;7.20;78.80;;;;;;5017003;28;20260;-88
2022/01/22 02:46:14;;;;;;;21.58;12.77;;;7.20;78.20;;;;;;5000054;28;20232;-88
2022/01/22 02:48:40;;;;;;;27.88;13.55;;;7.20;78.20;;;;;;4995295;28;20183;-88
2022/01/22 02:51:05;;;;;;;19.53;13.50;;;7.20;78.20;;;;;;4995760;28;20550;-89
2022/01/22 02:53:31;;;;;;;20.57;14.00;;;7.20;78.30;;;;;;4995682;28;20746;-89
2022/01/22 02:55:57;;;;;;;21.17;12.33;;;7.20;78.30;;;;;;4995474;28;20569;-88
2022/01/22 02:58:28;;;;;;;25.38;15.10;;;7.20;78.40;;;;;;4994824;28;21009;-88
2022/01/22 03:00:54;;;;;;;42.13;13.93;;;7.30;78.30;;;;;;4995072;28;20226;-89
2022/01/22 03:03:20;;;;;;;21.65;12.27;;;7.30;78.30;;;;;;4994558;28;20237;-88
2022/01/22 03:05:45;;;;;;;21.77;12.90;;;7.20;78.30;;;;;;4995079;28;20183;-89
2022/01/22 03:08:13;;;;;;;26.47;12.57;;;7.20;78.40;;;;;;4993178;28;20409;-89
2022/01/22 03:10:41;;;;;;;25.02;13.88;;;7.20;78.50;;;;;;4992085;28;20484;-89
2022/01/22 03:28:23;;;;;;;22.02;14.02;;;7.10;79.40;;;;;;4997832;28;20525;-88
2022/01/22 03:30:49;;;;;;;21.88;13.77;;;7.10;79.60;;;;;;4998432;28;20269;-88
2022/01/22 03:33:18;;;;;;;27.40;15.47;;;7.00;79.60;;;;;;4998693;28;20937;-88
2022/01/22 03:35:50;;;;;;;30.63;14.65;;;7.00;79.80;;;;;;4998773;28;20722;-88
2022/01/22 03:38:15;;;;;;;25.67;16.70;;;7.10;80.00;;;;;;4983176;28;20182;-89
2022/01/22 03:40:41;;;;;;;23.33;15.33;;;7.00;79.80;;;;;;4998623;28;20210;-89
2022/01/22 03:43:07;;;;;;;28.70;15.87;;;7.10;80.00;;;;;;4996444;28;20180;-88
2022/01/22 03:45:33;;;;;;;26.47;16.77;;;7.10;80.00;;;;;;5028095;28;20198;-88
2022/01/22 03:47:58;;;;;;;30.97;16.97;;;7.10;79.90;;;;;;5002516;28;20237;-88
2022/01/22 03:50:24;;;;;;;25.53;15.43;;;7.20;80.00;;;;;;4996027;28;20465;-88
2022/01/22 03:52:50;;;;;;;30.00;16.90;;;7.20;79.90;;;;;;4995154;28;20179;-86
2022/01/22 03:55:38;;;;;;;36.93;17.30;;;7.20;79.70;;;;;;4997657;28;20217;-88
2022/01/22 03:58:02;;;;;;;35.35;16.30;;;7.20;79.80;;;;;;5008885;28;20700;-87
2022/01/22 04:00:28;;;;;;;33.38;18.02;;;7.20;79.80;;;;;;5013280;28;20215;-86
2022/01/22 04:05:25;;;;;;;26.25;16.40;;;7.10;79.80;;;;;;5034671;28;20234;-89
2022/01/22 04:08:09;;;;;;;32.40;16.80;;;7.20;80.00;;;;;;5029452;28;20507;-88
2022/01/22 04:10:36;;;;;;;29.95;16.58;;;7.10;80.00;;;;;;5002493;28;20536;-88
2022/01/22 04:13:07;;;;;;;35.58;17.67;;;7.10;80.10;;;;;;4997134;28;20179;-88
2022/01/22 04:15:37;;;;;;;29.77;15.85;;;7.20;80.10;;;;;;4999776;28;20257;-90
2022/01/22 04:28:45;;;;;;;32.53;17.17;;;7.20;80.30;;;;;;4996011;28;20180;-89
2022/01/22 04:31:10;;;;;;;34.13;18.23;;;7.20;80.20;;;;;;4994405;28;20175;-90
2022/01/22 04:33:36;;;;;;;29.30;15.30;;;7.20;80.20;;;;;;4996961;28;20336;-89
2022/01/22 04:36:02;;;;;;;35.87;17.40;;;7.30;80.40;;;;;;4998166;28;20561;-89
2022/01/22 04:38:28;;;;;;;34.70;17.42;;;7.20;80.30;;;;;;4994021;28;20560;-89
2022/01/22 04:40:54;;;;;;;33.10;17.27;;;7.30;80.40;;;;;;4996961;28;20215;-88
2022/01/22 04:43:20;;;;;;;36.67;17.90;;;7.30;80.40;;;;;;4993737;28;20667;-89
2022/01/22 04:48:26;;;;;;;37.67;18.40;;;7.20;80.50;;;;;;4995370;28;20655;-89
2022/01/22 04:56:20;;;;;;;39.42;18.85;;;7.20;80.60;;;;;;4995033;28;20175;-89
2022/01/22 04:58:46;;;;;;;41.43;20.10;;;7.20;80.60;;;;;;4993427;28;20179;-89
2022/01/22 05:01:12;;;;;;;28.70;17.77;;;7.30;80.70;;;;;;4993682;28;20238;-88
2022/01/22 05:03:38;;;;;;;43.90;18.60;;;7.10;80.90;;;;;;5007491;28;20515;-88
2022/01/22 05:06:06;;;;;;;35.07;18.80;;;7.20;81.20;;;;;;4993783;28;20703;-89
2022/01/22 05:08:33;;;;;;;35.90;17.75;;;7.20;81.10;;;;;;4996502;28;20233;-89
2022/01/22 05:10:58;;;;;;;31.73;17.13;;;7.30;81.40;;;;;;4996763;28;20195;-88
2022/01/22 05:13:24;;;;;;;41.00;19.07;;;7.40;81.20;;;;;;4993432;28;20274;-88
2022/01/22 05:15:50;;;;;;;35.40;18.13;;;7.40;81.20;;;;;;4979809;28;20186;-88
2022/01/22 05:18:16;;;;;;;49.77;20.10;;;7.50;81.80;;;;;;5003373;28;20938;-89
2022/01/22 05:20:52;;;;;;;37.58;18.45;;;7.40;81.00;;;;;;4993371;28;20705;-90
2022/01/22 05:23:22;;;;;;;37.83;18.45;;;7.40;81.00;;;;;;4996284;28;20643;-89
2022/01/22 05:26:00;;;;;;;33.45;18.65;;;7.40;81.10;;;;;;4996315;28;20214;-89
2022/01/22 05:39:08;;;;;;;44.20;19.75;;;7.30;81.70;;;;;;4995275;28;20252;-89
2022/01/22 05:41:34;;;;;;;48.78;20.10;;;7.40;81.60;;;;;;4994766;28;20194;-88
2022/01/22 05:44:00;;;;;;;39.27;18.73;;;7.30;81.60;;;;;;5001652;28;20674;-88
2022/01/22 05:46:25;;;;;;;30.57;17.00;;;7.30;81.70;;;;;;5000319;28;20427;-89
2022/01/22 05:48:51;;;;;;;39.60;19.33;;;7.30;81.80;;;;;;5001633;28;20188;-88
2022/01/22 05:51:18;;;;;;;45.50;20.50;;;7.30;82.00;;;;;;5000732;28;20206;-88
2022/01/22 05:54:17;;;;;;;36.78;19.38;;;7.20;81.90;;;;;;4998668;28;20532;-88
2022/01/22 05:59:37;;;;;;;43.25;20.10;;;7.30;82.00;;;;;;5019588;28;20297;-88
2022/01/22 06:02:09;;;;;;;34.40;18.35;;;7.30;82.10;;;;;;5000363;28;20243;-88
2022/01/22 06:04:35;;;;;;;31.92;17.38;;;7.30;82.00;;;;;;5005967;28;20187;-87
2022/01/22 06:07:02;;;;;;;36.78;17.60;;;7.30;82.00;;;;;;5008555;28;20213;-88
2022/01/22 06:09:28;;;;;;;37.60;20.35;;;7.30;82.00;;;;;;5007268;28;20179;-88
2022/01/22 06:12:42;;;;;;;37.13;18.55;;;7.30;82.10;;;;;;4999801;28;20225;-88
2022/01/22 06:14:43;;;;;;;36.40;18.73;;;7.30;82.10;;;;;;5005775;28;20214;-88
2022/01/22 06:17:09;;;;;;;34.83;18.03;;;7.30;82.00;;;;;;4999158;28;20202;-88
2022/01/22 06:19:35;;;;;;;34.57;18.70;;;7.30;82.10;;;;;;4993072;28;20970;-87
2022/01/22 06:22:00;;;;;;;38.73;18.40;;;7.40;82.00;;;;;;4995070;28;20411;-88
2022/01/22 06:24:26;;;;;;;39.30;17.20;;;7.40;82.00;;;;;;4995839;28;20437;-88
2022/01/22 06:26:52;;;;;;;37.50;18.58;;;7.40;81.90;;;;;;5004099;28;20174;-87
2022/01/22 06:29:19;;;;;;;33.07;18.80;;;7.40;81.80;;;;;;5000238;28;20190;-89
2022/01/22 06:31:45;;;;;;;38.80;17.48;;;7.50;81.90;;;;;;4992777;28;20179;-88
2022/01/22 06:34:10;;;;;;;38.33;17.10;;;7.50;81.80;;;;;;4994570;28;20210;-89
2022/01/22 06:36:36;;;;;;;35.03;18.50;;;7.60;81.90;;;;;;4992224;28;20274;-88
2022/01/22 06:39:14;;;;;;;34.77;18.17;;;7.50;81.80;;;;;;4992531;28;20333;-88
2022/01/22 06:41:44;;;;;;;36.47;18.98;;;7.60;81.70;;;;;;4994261;28;20155;-88
2022/01/22 06:44:11;;;;;;;32.55;18.35;;;7.50;81.70;;;;;;4993771;28;20198;-89
2022/01/22 06:46:36;;;;;;;36.97;19.13;;;7.60;81.80;;;;;;4993507;28;20182;-89
2022/01/22 06:49:02;;;;;;;42.60;19.30;;;7.60;81.60;;;;;;5015636;28;20198;-86
2022/01/22 06:51:28;;;;;;;35.05;17.98;;;7.50;81.70;;;;;;5020206;28;20205;-88
2022/01/22 06:53:54;;;;;;;40.83;19.90;;;7.60;81.60;;;;;;5022440;28;20206;-87
2022/01/22 06:56:22;;;;;;;29.23;17.90;;;7.60;81.60;;;;;;5012552;28;20647;-88
2022/01/22 06:58:48;;;;;;;36.28;18.95;;;7.60;81.60;;;;;;4996500;28;20191;-89
2022/01/22 07:01:15;;;;;;;39.58;18.50;;;7.50;81.80;;;;;;4997246;28;20175;-89
2022/01/22 07:03:41;;;;;;;41.30;20.08;;;7.40;82.00;;;;;;4995364;28;20270;-88
2022/01/22 07:06:07;;;;;;;34.47;17.45;;;7.40;82.20;;;;;;4999487;28;20627;-89
2022/01/22 07:08:33;;;;;;;36.97;19.42;;;7.40;82.30;;;;;;4998597;28;20618;-89
2022/01/22 07:10:59;;;;;;;44.92;19.30;;;7.40;82.40;;;;;;4999113;28;20179;-89
2022/01/22 07:13:25;;;;;;;37.63;19.40;;;7.50;82.60;;;;;;4996319;28;20557;-89
2022/01/22 07:15:51;;;;;;;49.53;21.50;;;7.50;82.50;;;;;;4980891;28;20938;-89
2022/01/22 07:18:16;;;;;;;38.93;20.17;;;7.60;82.50;;;;;;4991394;28;20199;-90
2022/01/22 07:20:44;;;;;;;44.47;20.43;;;7.60;82.40;;;;;;4997941;28;20203;-89
2022/01/22 07:23:14;;;;;;;33.92;18.50;;;7.60;82.30;;;;;;5002369;28;20430;-89
2022/01/22 07:25:40;;;;;;;35.20;18.80;;;7.60;82.40;;;;;;4996351;28;20203;-89
2022/01/22 07:28:06;;;;;;;36.17;20.27;;;7.60;82.40;;;;;;4995870;28;20266;-89
2022/01/22 07:30:32;;;;;;;40.53;19.83;;;7.70;82.50;;;;;;4995780;28;20222;-89
2022/01/22 07:32:58;;;;;;;42.37;18.20;;;7.70;82.30;;;;;;4994899;28;20806;-89
2022/01/22 07:35:24;;;;;;;39.00;19.13;;;7.70;82.10;;;;;;4995128;28;20290;-89
2022/01/22 07:37:50;;;;;;;39.13;19.40;;;7.70;82.10;;;;;;4998238;28;20210;-89
2022/01/22 07:40:16;;;;;;;33.83;18.10;;;7.70;82.10;;;;;;4998424;28;20464;-90
2022/01/22 07:42:41;;;;;;;31.77;18.00;;;7.60;82.10;;;;;;4998252;28;20957;-90
2022/01/22 07:45:09;;;;;;;44.77;19.60;;;7.70;82.30;;;;;;4994832;28;20513;-90
2022/01/22 07:47:36;;;;;;;37.00;19.13;;;7.70;82.20;;;;;;4994615;28;20415;-89
2022/01/22 07:50:02;;;;;;;41.58;19.67;;;7.60;82.10;;;;;;4995009;28;20230;-90
2022/01/22 07:52:28;;;;;;;40.00;17.83;;;7.70;82.30;;;;;;5002146;28;20611;-90
2022/01/22 07:54:54;;;;;;;35.25;18.25;;;7.70;82.20;;;;;;4998086;28;20210;-90
2022/01/22 07:57:20;;;;;;;38.73;18.10;;;7.70;82.20;;;;;;4998570;28;20185;-90
2022/01/22 07:59:45;;;;;;;34.13;17.45;;;7.50;82.20;;;;;;4998353;28;20216;-90
2022/01/22 08:02:13;;;;;;;38.27;18.30;;;7.60;82.30;;;;;;4998196;28;20761;-91
2022/01/22 08:05:00;;;;;;;38.67;19.60;;;7.60;82.40;;;;;;4996850;28;20199;-91
2022/01/22 08:07:32;;;;;;;33.03;18.92;;;7.90;82.50;;;;;;4996308;28;20187;-90
2022/01/22 08:09:58;;;;;;;42.63;17.95;;;7.80;82.20;;;;;;4960565;28;20184;-91
2022/01/22 08:12:27;;;;;;;30.67;18.70;;;7.80;82.10;;;;;;4976669;28;20235;-90
2022/01/22 08:14:53;;;;;;;34.00;19.27;;;7.80;81.70;;;;;;4970371;28;20453;-91
2022/01/22 08:17:19;;;;;;;42.40;18.23;;;7.70;81.60;;;;;;4996068;28;20190;-90
2022/01/22 08:19:47;;;;;;;33.10;17.13;;;7.80;81.70;;;;;;4995484;28;20626;-89
2022/01/22 08:22:12;;;;;;;30.73;17.13;;;7.80;81.80;;;;;;4986768;28;20521;-88
2022/01/22 08:24:41;;;;;;;38.37;17.50;;;7.80;81.70;;;;;;4978685;28;20235;-89
2022/01/22 08:29:36;;;;;;;31.02;17.73;;;7.80;81.60;;;;;;4997321;28;20215;-89
2022/01/22 08:37:13;;;;;;;33.15;17.63;;;7.80;81.30;;;;;;4998424;28;20227;-88
2022/01/22 08:39:39;;;;;;;32.37;17.83;;;7.90;81.40;;;;;;4979282;28;20219;-89
2022/01/22 08:42:06;;;;;;;37.27;16.77;;;7.80;81.90;;;;;;4980393;28;20215;-89
2022/01/22 08:44:32;;;;;;;35.78;17.95;;;7.90;81.40;;;;;;4984297;28;20860;-88
2022/01/22 08:46:58;;;;;;;36.50;17.35;;;8.00;81.10;;;;;;4983378;28;20191;-89
2022/01/22 08:49:25;;;;;;;30.45;15.95;;;8.00;80.90;;;;;;4980741;28;20187;-87
2022/01/22 08:51:51;;;;;;;32.00;17.10;;;8.10;80.80;;;;;;4979612;28;20678;-87
2022/01/22 08:54:18;;;;;;;34.08;17.70;;;8.10;80.60;;;;;;4996738;28;20198;-87
2022/01/22 08:56:43;;;;;;;42.05;16.98;;;8.20;80.50;;;;;;5004294;28;20193;-89
2022/01/22 08:59:10;;;;;;;33.97;17.73;;;8.20;80.20;;;;;;5002832;28;20210;-88
2022/01/22 09:01:39;;;;;;;30.33;17.58;;;8.20;80.10;;;;;;4980439;28;20266;-89
2022/01/22 09:04:05;;;;;;;33.42;18.05;;;8.10;80.00;;;;;;4987661;28;20229;-88
2022/01/22 09:06:31;;;;;;;33.70;19.30;;;8.10;80.00;;;;;;4987530;28;20557;-86
2022/01/22 09:09:07;;;;;;;32.23;18.33;;;8.20;79.70;;;;;;4978947;28;20179;-87
2022/01/22 09:11:33;;;;;;;35.15;18.70;;;8.00;79.50;;;;;;4984831;28;20170;-89
2022/01/22 09:13:59;;;;;;;35.83;17.50;;;8.10;79.90;;;;;;5004004;28;20203;-90
2022/01/22 09:16:25;;;;;;;37.30;18.77;;;8.10;79.90;;;;;;4997791;28;20179;-90
2022/01/22 09:18:53;;;;;;;30.00;17.83;;;8.20;79.80;;;;;;4997967;28;20441;-88
2022/01/22 09:21:19;;;;;;;36.00;16.05;;;8.10;79.70;;;;;;4997974;28;20433;-89
2022/01/22 09:23:45;;;;;;;32.37;17.37;;;8.10;79.70;;;;;;5020140;28;20227;-90
2022/01/22 09:26:11;;;;;;;25.70;16.30;;;8.30;80.40;;;;;;4998761;28;20183;-91
2022/01/22 09:28:47;;;;;;;31.55;18.98;;;8.30;79.60;;;;;;4998976;28;20483;-92
2022/01/22 09:31:14;;;;;;;25.58;16.48;;;8.30;79.40;;;;;;4999074;28;20174;-88
2022/01/22 09:33:40;;;;;;;30.17;17.50;;;8.30;79.40;;;;;;4999955;28;20306;-88
2022/01/22 09:36:06;;;;;;;31.60;18.60;;;8.30;79.30;;;;;;5003597;28;20662;-90
2022/01/22 09:38:31;;;;;;;40.13;18.77;;;8.30;79.30;;;;;;5009862;28;20428;-92
2022/01/22 09:41:00;;;;;;;33.67;18.30;;;8.30;79.10;;;;;;5020088;28;20211;-90
2022/01/22 09:43:26;;;;;;;40.38;19.50;;;8.40;79.00;;;;;;5021495;28;20155;-88
2022/01/22 09:45:52;;;;;;;30.57;16.17;;;8.30;78.90;;;;;;5014529;28;20216;-88
2022/01/22 09:48:17;;;;;;;37.17;17.40;;;8.40;78.80;;;;;;5025626;28;20430;-88
2022/01/22 09:50:43;;;;;;;36.10;18.57;;;8.40;78.70;;;;;;4998486;28;20739;-87
2022/01/22 09:53:09;;;;;;;29.07;16.83;;;8.40;78.40;;;;;;5003714;28;20183;-89
2022/01/22 09:55:35;;;;;;;27.03;17.10;;;8.20;78.30;;;;;;5001205;28;20465;-88
2022/01/22 09:58:01;;;;;;;33.20;17.23;;;8.20;78.40;;;;;;5000155;28;20418;-87
2022/01/22 10:00:27;;;;;;;35.03;18.27;;;8.10;78.40;;;;;;4999208;28;20226;-88
2022/01/22 10:02:55;;;;;;;33.80;17.70;;;8.10;78.50;;;;;;5000443;28;20175;-88
2022/01/22 10:05:30;;;;;;;35.28;18.10;;;8.20;78.40;;;;;;4987353;28;20582;-88
2022/01/22 10:08:34;;;;;;;35.58;18.05;;;8.10;78.60;;;;;;4982791;28;20669;-89
2022/01/22 10:11:19;;;;;;;37.58;16.73;;;8.20;78.70;;;;;;4978290;28;20254;-89
2022/01/22 10:13:50;;;;;;;33.30;17.75;;;8.30;78.60;;;;;;4982140;28;20200;-89
2022/01/22 10:16:45;;;;;;;31.52;17.40;;;8.30;78.50;;;;;;4978196;28;20230;-90
2022/01/22 10:19:22;;;;;;;40.03;18.05;;;8.30;78.50;;;;;;4979044;28;20194;-89
2022/01/22 10:21:59;;;;;;;33.05;17.70;;;8.50;78.40;;;;;;4979521;28;20679;-89
2022/01/22 10:24:47;;;;;;;36.13;16.58;;;8.30;78.30;;;;;;4995954;28;20222;-88
2022/01/22 10:27:38;;;;;;;31.58;19.40;;;8.30;78.50;;;;;;4984572;28;20175;-88
2022/01/22 10:30:15;;;;;;;37.58;20.33;;;8.30;78.50;;;;;;4984040;28;20178;-88
2022/01/22 10:35:23;;;;;;;34.92;18.00;;;8.20;78.70;;;;;;5002730;28;20206;-88
2022/01/22 10:38:21;;;;;;;34.28;19.20;;;8.20;78.60;;;;;;4976868;28;20174;-87
2022/01/22 10:40:49;;;;;;;33.13;17.92;;;8.30;78.70;;;;;;4981939;28;20219;-87
2022/01/22 10:46:08;;;;;;;35.30;17.90;;;8.30;78.80;;;;;;4993892;28;20256;-87
2022/01/22 10:48:56;;;;;;;36.88;17.70;;;8.30;78.60;;;;;;4987154;28;20179;-88
2022/01/22 10:51:23;;;;;;;32.50;17.80;;;8.30;78.70;;;;;;4996001;28;20194;-88
2022/01/22 10:54:10;;;;;;;34.88;18.40;;;8.20;78.50;;;;;;4994565;28;20638;-86
2022/01/22 10:56:39;;;;;;;35.90;18.10;;;8.30;78.60;;;;;;4994523;28;20234;-85
2022/01/22 10:59:17;;;;;;;39.88;18.60;;;8.30;78.50;;;;;;4980277;28;20197;-89
2022/01/22 11:01:48;;;;;;;30.17;18.40;;;8.20;78.30;;;;;;4995836;28;20185;-87
2022/01/22 11:04:15;;;;;;;42.45;19.05;;;8.30;78.40;;;;;;4996589;28;20627;-87
2022/01/22 11:06:50;;;;;;;33.47;18.35;;;8.40;78.40;;;;;;4995508;28;20182;-87
2022/01/22 11:09:16;;;;;;;33.45;18.77;;;8.40;78.10;;;;;;4995753;28;20182;-87
2022/01/22 11:11:42;;;;;;;38.20;18.83;;;8.40;78.10;;;;;;4995448;28;20222;-87
2022/01/22 11:14:11;;;;;;;37.40;20.17;;;8.50;78.10;;;;;;5012477;28;20735;-87
2022/01/22 11:16:39;;;;;;;33.22;18.25;;;8.50;78.20;;;;;;4995491;28;20292;-87
2022/01/22 11:19:07;;;;;;;30.77;18.25;;;8.60;78.10;;;;;;4994980;28;20659;-88
2022/01/22 11:21:35;;;;;;;36.30;19.98;;;8.40;77.80;;;;;;4992386;28;20556;-88
2022/01/22 11:24:01;;;;;;;33.33;19.05;;;8.50;78.00;;;;;;4991518;28;20745;-88
2022/01/22 11:26:29;;;;;;;29.13;19.08;;;8.50;77.80;;;;;;4994300;28;20178;-88
2022/01/22 11:29:35;;;;;;;38.78;20.92;;;8.50;77.80;;;;;;4992122;28;20560;-88
2022/01/22 11:32:09;;;;;;;34.90;19.63;;;8.40;77.70;;;;;;4992642;28;20176;-87
2022/01/22 11:34:37;;;;;;;35.15;20.77;;;8.40;77.90;;;;;;4991549;28;20203;-88
2022/01/22 11:37:17;;;;;;;41.90;20.50;;;8.30;77.80;;;;;;4986255;28;20191;-88
2022/01/22 11:39:42;;;;;;;40.47;19.40;;;8.40;77.80;;;;;;4979132;28;20199;-88
2022/01/22 11:42:09;;;;;;;35.17;18.37;;;8.40;77.70;;;;;;4997420;28;20534;-88
2022/01/22 11:44:51;;;;;;;39.13;20.00;;;8.40;77.70;;;;;;4982943;28;20448;-88
2022/01/22 11:47:22;;;;;;;36.58;18.73;;;8.40;77.40;;;;;;4982214;28;20186;-88
2022/01/22 11:50:04;;;;;;;37.13;21.13;;;8.40;77.30;;;;;;4982016;28;20171;-88
2022/01/22 11:52:33;;;;;;;38.20;20.10;;;8.40;77.40;;;;;;4980968;28;20187;-88
2022/01/22 11:55:01;;;;;;;39.00;19.92;;;8.60;77.30;;;;;;4981304;28;20205;-89
2022/01/22 11:57:29;;;;;;;32.95;19.00;;;8.50;76.70;;;;;;4999376;28;20179;-88
2022/01/22 12:00:19;;;;;;;36.28;19.08;;;8.50;76.40;;;;;;4999242;28;20195;-88
2022/01/22 12:03:05;;;;;;;38.60;18.02;;;8.50;76.30;;;;;;4979343;28;20178;-88
2022/01/22 12:05:31;;;;;;;40.33;17.98;;;8.50;76.10;;;;;;4980860;28;20224;-88
2022/01/22 12:07:59;;;;;;;30.40;18.77;;;8.40;75.70;;;;;;4982375;28;20175;-88
2022/01/22 12:10:43;;;;;;;33.33;17.02;;;8.50;75.50;;;;;;4981628;28;20843;-88
2022/01/22 12:16:15;;;;;;;32.17;17.95;;;8.30;75.10;;;;;;4982725;28;20827;-89
2022/01/22 12:18:50;;;;;;;27.35;18.05;;;8.40;75.40;;;;;;4962703;28;20206;-88
2022/01/22 12:21:36;;;;;;;34.72;18.80;;;8.50;75.60;;;;;;4970214;28;20264;-89
2022/01/22 12:24:08;;;;;;;34.67;18.70;;;8.40;75.80;;;;;;4975458;28;20188;-89
2022/01/22 12:26:36;;;;;;;35.45;21.15;;;8.50;76.10;;;;;;4977822;28;20247;-88
2022/01/22 12:29:30;;;;;;;35.80;19.23;;;8.60;75.80;;;;;;4982548;28;20169;-89
2022/01/22 12:32:10;;;;;;;36.28;19.05;;;8.60;75.70;;;;;;4966383;28;20227;-89
2022/01/22 12:34:59;;;;;;;39.72;21.48;;;8.60;75.70;;;;;;4959162;28;20209;-88
2022/01/22 12:37:26;;;;;;;33.58;17.75;;;8.80;75.80;;;;;;4960920;28;20183;-88
2022/01/22 12:39:55;;;;;;;34.05;17.98;;;8.50;75.50;;;;;;4961427;28;20207;-88
2022/01/22 12:42:32;;;;;;;39.40;21.05;;;8.40;75.40;;;;;;4959645;28;20184;-88
2022/01/22 12:45:03;;;;;;;38.42;20.17;;;8.40;75.50;;;;;;4958599;28;20203;-88
2022/01/22 12:47:29;;;;;;;37.00;18.92;;;8.50;75.70;;;;;;4960115;28;20207;-87
2022/01/22 12:50:01;;;;;;;34.88;19.70;;;8.50;75.70;;;;;;4975834;28;20267;-89
2022/01/22 12:52:27;;;;;;;31.70;18.15;;;8.30;75.50;;;;;;4958943;28;20184;-88
2022/01/22 12:54:57;;;;;;;35.45;19.35;;;8.20;75.80;;;;;;4958720;28;20207;-88
2022/01/22 12:57:25;;;;;;;39.70;21.02;;;8.30;76.30;;;;;;4976675;28;20242;-88
2022/01/22 13:00:12;;;;;;;35.92;21.00;;;8.40;76.20;;;;;;4959149;28;20348;-88
2022/01/22 13:02:40;;;;;;;35.92;21.35;;;8.50;76.00;;;;;;4959462;28;20164;-88
2022/01/22 13:05:07;;;;;;;48.47;21.65;;;8.60;75.80;;;;;;4959449;28;20200;-88
2022/01/22 13:07:42;;;;;;;47.30;20.83;;;8.80;75.70;;;;;;4959575;28;20250;-89
2022/01/22 13:10:09;;;;;;;41.88;23.27;;;8.80;75.10;;;;;;4960004;28;20253;-89
2022/01/22 13:12:45;;;;;;;42.28;21.77;;;8.80;75.00;;;;;;4963271;28;20191;-89
2022/01/22 13:15:14;;;;;;;41.83;20.80;;;8.70;75.10;;;;;;4964466;28;20559;-88
2022/01/22 13:17:40;;;;;;;45.35;21.58;;;8.60;75.40;;;;;;4966203;28;20196;-88
2022/01/22 13:20:07;;;;;;;38.83;20.93;;;8.60;75.70;;;;;;4965118;28;20215;-89
2022/01/22 13:22:35;;;;;;;33.85;18.85;;;8.50;75.90;;;;;;4963812;28;20422;-89
2022/01/22 13:25:08;;;;;;;38.65;21.15;;;8.60;76.00;;;;;;4962060;28;20196;-88
2022/01/22 13:27:36;;;;;;;39.15;20.48;;;8.60;75.80;;;;;;4976927;28;20239;-88
2022/01/22 13:30:03;;;;;;;33.58;20.13;;;8.60;75.70;;;;;;4976021;28;20594;-88
2022/01/22 13:40:50;;;;;;;35.35;20.80;;;8.50;75.80;;;;;;4975992;28;20281;-88
2022/01/22 13:49:17;;;;;;;42.70;21.92;;;8.50;75.70;;;;;;4975003;28;20166;-88
2022/01/22 13:51:45;;;;;;;43.45;23.42;;;8.40;76.00;;;;;;4957878;28;20191;-88
2022/01/22 13:54:18;;;;;;;45.28;24.30;;;8.40;76.30;;;;;;4957978;28;20199;-88
2022/01/22 13:56:53;;;;;;;45.00;25.85;;;8.50;76.30;;;;;;4957558;28;20194;-88
2022/01/22 13:59:27;;;;;;;48.53;23.85;;;8.50;76.40;;;;;;4957809;28;20178;-88
2022/01/22 14:05:00;;;;;;;40.55;22.60;;;8.20;77.00;;;;;;4974711;28;20222;-88
2022/01/22 14:07:30;;;;;;;51.25;23.45;;;8.40;77.10;;;;;;4960886;28;20214;-88
2022/01/22 14:10:13;;;;;;;45.80;23.10;;;8.40;76.90;;;;;;4959289;28;20179;-88
2022/01/22 14:12:45;;;;;;;35.72;22.13;;;8.10;77.00;;;;;;4957208;28;20674;-88
2022/01/22 14:15:15;;;;;;;49.30;22.83;;;8.20;77.20;;;;;;4969433;28;20210;-88
2022/01/22 14:18:23;;;;;;;42.83;22.23;;;8.20;77.30;;;;;;4993682;28;20207;-88
2022/01/22 14:20:52;;;;;;;31.65;16.95;;;8.00;77.30;;;;;;4993256;28;20802;-88
2022/01/22 14:23:22;;;;;;;35.95;18.95;;;7.90;77.50;;;;;;4976167;28;20247;-88
2022/01/22 14:25:59;;;;;;;42.90;21.05;;;7.80;77.60;;;;;;4976449;28;20182;-88
2022/01/22 14:28:36;;;;;;;33.80;18.40;;;7.70;78.00;;;;;;4976400;28;20536;-88
2022/01/22 14:31:16;;;;;;;38.72;20.00;;;7.70;78.20;;;;;;4976222;28;20273;-87
2022/01/22 14:33:42;;;;;;;35.97;20.13;;;7.70;78.50;;;;;;4976756;28;20199;-88
2022/01/22 14:36:13;;;;;;;40.63;21.47;;;7.70;78.70;;;;;;4984959;28;20549;-88
2022/01/22 14:38:46;;;;;;;34.10;19.80;;;7.90;78.70;;;;;;4987392;28;20481;-88
2022/01/22 14:46:56;;;;;;;38.75;18.67;;;7.90;78.70;;;;;;4996225;28;20246;-88
2022/01/22 14:49:34;;;;;;;40.67;19.08;;;7.80;78.40;;;;;;4978349;28;20254;-88
2022/01/22 14:52:00;;;;;;;42.60;18.38;;;7.60;78.70;;;;;;4996662;28;20186;-88
2022/01/22 14:54:28;;;;;;;35.92;17.83;;;7.60;78.80;;;;;;4978945;28;20192;-88
2022/01/22 14:56:54;;;;;;;35.70;18.58;;;7.60;78.90;;;;;;4976404;28;20194;-87
2022/01/22 14:59:20;;;;;;;36.17;19.00;;;7.60;79.00;;;;;;4976462;28;20172;-87